sensor_id;sensor_type;location;lat;lon;timestamp;temperature;humidity
10512;DHT22;5304;48.604;2.096;2022-08-07T00:01:31;18.10;99.50
10512;DHT22;5304;48.604;2.096;2022-08-07T00:04:16;18.20;99.50
10512;DHT22;5304;48.604;2.096;2022-08-07T00:07:01;18.20;99.60
10512;DHT22;5304;48.604;2.096;2022-08-07T00:09:46;18.10;99.60
10512;DHT22;5304;48.604;2.096;2022-08-07T00:12:30;18.10;99.70
10512;DHT22;5304;48.604;2.096;2022-08-07T00:15:15;18.10;99.80
10512;DHT22;5304;48.604;2.096;2022-08-07T00:17:59;18.10;99.80
10512;DHT22;5304;48.604;2.096;2022-08-07T00:20:44;18.10;99.90
10512;DHT22;5304;48.604;2.096;2022-08-07T00:23:30;18.00;99.90
10512;DHT22;5304;48.604;2.096;2022-08-07T00:26:15;18.00;99.90
10512;DHT22;5304;48.604;2.096;2022-08-07T00:28:59;17.90;99.90
10512;DHT22;5304;48.604;2.096;2022-08-07T00:31:43;17.90;99.90
10512;DHT22;5304;48.604;2.096;2022-08-07T00:34:28;17.80;99.90
10512;DHT22;5304;48.604;2.096;2022-08-07T00:37:13;17.80;99.90
10512;DHT22;5304;48.604;2.096;2022-08-07T00:39:58;17.70;99.90
10512;DHT22;5304;48.604;2.096;2022-08-07T00:42:43;17.70;99.90
10512;DHT22;5304;48.604;2.096;2022-08-07T00:45:28;17.60;99.90
10512;DHT22;5304;48.604;2.096;2022-08-07T00:48:13;17.60;99.90
10512;DHT22;5304;48.604;2.096;2022-08-07T00:50:58;17.50;99.90
10512;DHT22;5304;48.604;2.096;2022-08-07T00:53:43;17.60;99.90
10512;DHT22;5304;48.604;2.096;2022-08-07T00:56:27;17.50;99.90
10512;DHT22;5304;48.604;2.096;2022-08-07T00:59:13;17.40;99.90
10512;DHT22;5304;48.604;2.096;2022-08-07T01:01:58;17.30;99.90
10512;DHT22;5304;48.604;2.096;2022-08-07T01:04:43;17.30;99.90
10512;DHT22;5304;48.604;2.096;2022-08-07T01:07:27;17.30;99.90
10512;DHT22;5304;48.604;2.096;2022-08-07T01:10:12;17.30;99.90
10512;DHT22;5304;48.604;2.096;2022-08-07T01:12:57;17.30;99.90
10512;DHT22;5304;48.604;2.096;2022-08-07T01:15:42;17.30;99.90
10512;DHT22;5304;48.604;2.096;2022-08-07T01:18:27;17.30;99.90
10512;DHT22;5304;48.604;2.096;2022-08-07T01:21:17;17.30;99.90
10512;DHT22;5304;48.604;2.096;2022-08-07T01:24:03;17.20;99.90
10512;DHT22;5304;48.604;2.096;2022-08-07T01:26:49;17.30;99.90
10512;DHT22;5304;48.604;2.096;2022-08-07T01:29:34;17.20;99.90
10512;DHT22;5304;48.604;2.096;2022-08-07T01:32:18;17.20;99.90
10512;DHT22;5304;48.604;2.096;2022-08-07T01:35:03;17.20;99.90
10512;DHT22;5304;48.604;2.096;2022-08-07T01:37:50;17.20;99.90
10512;DHT22;5304;48.604;2.096;2022-08-07T01:40:35;17.20;99.90
10512;DHT22;5304;48.604;2.096;2022-08-07T01:43:20;17.20;99.90
10512;DHT22;5304;48.604;2.096;2022-08-07T01:46:05;17.20;99.90
10512;DHT22;5304;48.604;2.096;2022-08-07T01:48:49;17.20;99.90
10512;DHT22;5304;48.604;2.096;2022-08-07T01:51:35;17.10;99.90
10512;DHT22;5304;48.604;2.096;2022-08-07T01:54:21;17.20;99.90
10512;DHT22;5304;48.604;2.096;2022-08-07T02:00:05;17.10;99.90
10512;DHT22;5304;48.604;2.096;2022-08-07T02:02:53;17.10;99.90
10512;DHT22;5304;48.604;2.096;2022-08-07T02:05:45;17.00;99.90
10512;DHT22;5304;48.604;2.096;2022-08-07T02:08:33;17.00;99.90
10512;DHT22;5304;48.604;2.096;2022-08-07T02:11:21;16.90;99.90
10512;DHT22;5304;48.604;2.096;2022-08-07T02:14:06;16.90;99.90
10512;DHT22;5304;48.604;2.096;2022-08-07T02:16:51;16.90;99.90
10512;DHT22;5304;48.604;2.096;2022-08-07T02:19:42;16.80;99.90
10512;DHT22;5304;48.604;2.096;2022-08-07T02:22:29;16.80;99.90
10512;DHT22;5304;48.604;2.096;2022-08-07T02:25:16;16.80;99.90
10512;DHT22;5304;48.604;2.096;2022-08-07T02:28:02;16.70;99.90
10512;DHT22;5304;48.604;2.096;2022-08-07T02:30:47;16.70;99.90
10512;DHT22;5304;48.604;2.096;2022-08-07T02:33:35;16.70;99.90
10512;DHT22;5304;48.604;2.096;2022-08-07T02:36:21;16.60;99.90
10512;DHT22;5304;48.604;2.096;2022-08-07T02:39:07;16.60;99.90
10512;DHT22;5304;48.604;2.096;2022-08-07T02:41:52;16.70;99.90
10512;DHT22;5304;48.604;2.096;2022-08-07T02:44:40;16.60;99.90
10512;DHT22;5304;48.604;2.096;2022-08-07T02:47:24;16.50;99.90
10512;DHT22;5304;48.604;2.096;2022-08-07T02:50:09;16.50;99.90
10512;DHT22;5304;48.604;2.096;2022-08-07T02:53:00;16.50;99.90
10512;DHT22;5304;48.604;2.096;2022-08-07T02:55:48;16.50;99.90
10512;DHT22;5304;48.604;2.096;2022-08-07T02:58:33;16.40;99.90
10512;DHT22;5304;48.604;2.096;2022-08-07T03:01:19;16.40;99.90
10512;DHT22;5304;48.604;2.096;2022-08-07T03:04:05;16.30;99.90
10512;DHT22;5304;48.604;2.096;2022-08-07T03:06:51;16.30;99.90
10512;DHT22;5304;48.604;2.096;2022-08-07T03:09:36;16.30;99.90
10512;DHT22;5304;48.604;2.096;2022-08-07T03:12:21;16.30;99.90
10512;DHT22;5304;48.604;2.096;2022-08-07T03:15:06;16.20;99.90
10512;DHT22;5304;48.604;2.096;2022-08-07T03:17:52;16.30;99.90
10512;DHT22;5304;48.604;2.096;2022-08-07T03:20:38;16.20;99.90
10512;DHT22;5304;48.604;2.096;2022-08-07T03:23:25;16.30;99.90
10512;DHT22;5304;48.604;2.096;2022-08-07T03:26:13;16.20;99.90
10512;DHT22;5304;48.604;2.096;2022-08-07T03:29:02;16.20;99.90
10512;DHT22;5304;48.604;2.096;2022-08-07T03:31:50;16.30;99.90
10512;DHT22;5304;48.604;2.096;2022-08-07T03:34:35;16.20;99.90
10512;DHT22;5304;48.604;2.096;2022-08-07T03:37:22;16.10;99.90
10512;DHT22;5304;48.604;2.096;2022-08-07T03:40:08;16.10;99.90
10512;DHT22;5304;48.604;2.096;2022-08-07T03:42:53;16.10;99.90
10512;DHT22;5304;48.604;2.096;2022-08-07T03:45:39;16.10;99.90
10512;DHT22;5304;48.604;2.096;2022-08-07T03:48:25;16.00;99.90
10512;DHT22;5304;48.604;2.096;2022-08-07T03:51:10;16.00;99.90
10512;DHT22;5304;48.604;2.096;2022-08-07T03:53:54;16.00;99.90
10512;DHT22;5304;48.604;2.096;2022-08-07T03:56:39;16.00;99.90
10512;DHT22;5304;48.604;2.096;2022-08-07T03:59:25;16.00;99.90
10512;DHT22;5304;48.604;2.096;2022-08-07T04:02:11;16.00;99.90
10512;DHT22;5304;48.604;2.096;2022-08-07T04:04:55;15.90;99.90
10512;DHT22;5304;48.604;2.096;2022-08-07T04:07:45;15.80;99.90
10512;DHT22;5304;48.604;2.096;2022-08-07T04:10:31;15.80;99.90
10512;DHT22;5304;48.604;2.096;2022-08-07T04:13:16;15.80;99.90
10512;DHT22;5304;48.604;2.096;2022-08-07T04:16:02;15.70;99.90
10512;DHT22;5304;48.604;2.096;2022-08-07T04:18:46;15.70;99.90
10512;DHT22;5304;48.604;2.096;2022-08-07T04:21:31;15.70;99.90
10512;DHT22;5304;48.604;2.096;2022-08-07T04:24:16;15.70;99.90
10512;DHT22;5304;48.604;2.096;2022-08-07T04:27:03;15.70;99.90
10512;DHT22;5304;48.604;2.096;2022-08-07T04:29:47;15.60;99.90
10512;DHT22;5304;48.604;2.096;2022-08-07T04:32:32;15.60;99.90
10512;DHT22;5304;48.604;2.096;2022-08-07T04:35:18;15.70;99.90
10512;DHT22;5304;48.604;2.096;2022-08-07T04:38:06;15.60;99.90
10512;DHT22;5304;48.604;2.096;2022-08-07T04:40:51;15.70;99.90
10512;DHT22;5304;48.604;2.096;2022-08-07T04:43:37;15.70;99.90
10512;DHT22;5304;48.604;2.096;2022-08-07T04:46:38;15.60;99.90
10512;DHT22;5304;48.604;2.096;2022-08-07T04:49:40;15.70;99.90
10512;DHT22;5304;48.604;2.096;2022-08-07T04:52:38;15.80;99.90
10512;DHT22;5304;48.604;2.096;2022-08-07T04:55:29;15.80;99.90
10512;DHT22;5304;48.604;2.096;2022-08-07T04:58:22;15.80;99.90
10512;DHT22;5304;48.604;2.096;2022-08-07T05:07:55;15.90;99.90
10512;DHT22;5304;48.604;2.096;2022-08-07T05:10:46;16.00;99.90
10512;DHT22;5304;48.604;2.096;2022-08-07T05:13:36;16.00;99.90
10512;DHT22;5304;48.604;2.096;2022-08-07T05:16:23;16.00;99.90
10512;DHT22;5304;48.604;2.096;2022-08-07T05:19:15;16.00;99.90
10512;DHT22;5304;48.604;2.096;2022-08-07T05:22:05;16.10;99.90
10512;DHT22;5304;48.604;2.096;2022-08-07T05:24:52;16.00;99.90
10512;DHT22;5304;48.604;2.096;2022-08-07T05:27:38;16.10;99.90
10512;DHT22;5304;48.604;2.096;2022-08-07T05:30:24;16.20;99.90
10512;DHT22;5304;48.604;2.096;2022-08-07T05:33:12;16.20;99.90
10512;DHT22;5304;48.604;2.096;2022-08-07T05:35:59;16.20;99.90
10512;DHT22;5304;48.604;2.096;2022-08-07T05:38:44;16.30;99.90
10512;DHT22;5304;48.604;2.096;2022-08-07T05:41:29;16.30;99.90
10512;DHT22;5304;48.604;2.096;2022-08-07T05:44:17;16.40;99.90
10512;DHT22;5304;48.604;2.096;2022-08-07T05:47:02;16.50;99.90
10512;DHT22;5304;48.604;2.096;2022-08-07T05:49:48;16.50;99.90
10512;DHT22;5304;48.604;2.096;2022-08-07T05:52:33;16.60;99.90
10512;DHT22;5304;48.604;2.096;2022-08-07T05:55:18;16.60;99.90
10512;DHT22;5304;48.604;2.096;2022-08-07T05:58:04;16.60;99.90
10512;DHT22;5304;48.604;2.096;2022-08-07T06:00:50;16.60;99.90
10512;DHT22;5304;48.604;2.096;2022-08-07T06:03:35;16.80;99.90
10512;DHT22;5304;48.604;2.096;2022-08-07T06:06:22;16.80;99.90
10512;DHT22;5304;48.604;2.096;2022-08-07T06:09:07;17.00;99.90
10512;DHT22;5304;48.604;2.096;2022-08-07T06:11:52;17.10;99.90
10512;DHT22;5304;48.604;2.096;2022-08-07T06:14:36;17.20;99.90
10512;DHT22;5304;48.604;2.096;2022-08-07T06:17:22;17.20;99.90
10512;DHT22;5304;48.604;2.096;2022-08-07T06:20:08;17.40;99.90
10512;DHT22;5304;48.604;2.096;2022-08-07T06:22:54;17.50;99.90
10512;DHT22;5304;48.604;2.096;2022-08-07T06:25:41;17.50;99.90
10512;DHT22;5304;48.604;2.096;2022-08-07T06:28:26;17.70;99.90
10512;DHT22;5304;48.604;2.096;2022-08-07T06:31:11;18.00;99.90
10512;DHT22;5304;48.604;2.096;2022-08-07T06:33:57;18.70;99.90
10512;DHT22;5304;48.604;2.096;2022-08-07T06:36:41;19.40;99.90
10512;DHT22;5304;48.604;2.096;2022-08-07T06:39:26;19.70;99.90
10512;DHT22;5304;48.604;2.096;2022-08-07T06:42:14;19.50;99.90
10512;DHT22;5304;48.604;2.096;2022-08-07T06:45:01;19.30;99.90
10512;DHT22;5304;48.604;2.096;2022-08-07T06:47:46;19.20;99.90
10512;DHT22;5304;48.604;2.096;2022-08-07T06:50:33;19.50;99.90
10512;DHT22;5304;48.604;2.096;2022-08-07T06:53:20;20.10;99.90
10512;DHT22;5304;48.604;2.096;2022-08-07T06:56:07;20.10;99.90
10512;DHT22;5304;48.604;2.096;2022-08-07T06:58:52;20.10;99.90
10512;DHT22;5304;48.604;2.096;2022-08-07T07:01:38;20.00;99.90
10512;DHT22;5304;48.604;2.096;2022-08-07T07:04:24;20.00;99.90
10512;DHT22;5304;48.604;2.096;2022-08-07T07:07:09;20.10;99.90
10512;DHT22;5304;48.604;2.096;2022-08-07T07:09:54;20.20;99.90
10512;DHT22;5304;48.604;2.096;2022-08-07T07:12:54;20.10;99.90
10512;DHT22;5304;48.604;2.096;2022-08-07T07:15:43;20.00;99.90
10512;DHT22;5304;48.604;2.096;2022-08-07T07:18:33;20.00;99.90
10512;DHT22;5304;48.604;2.096;2022-08-07T07:21:28;20.00;99.90
10512;DHT22;5304;48.604;2.096;2022-08-07T07:24:13;20.30;99.90
10512;DHT22;5304;48.604;2.096;2022-08-07T07:27:02;20.60;99.90
10512;DHT22;5304;48.604;2.096;2022-08-07T07:29:51;20.70;99.90
10512;DHT22;5304;48.604;2.096;2022-08-07T07:32:38;21.10;99.90
10512;DHT22;5304;48.604;2.096;2022-08-07T07:35:25;21.30;99.90
10512;DHT22;5304;48.604;2.096;2022-08-07T07:38:12;21.80;99.90
10512;DHT22;5304;48.604;2.096;2022-08-07T07:41:03;22.40;99.90
10512;DHT22;5304;48.604;2.096;2022-08-07T07:43:50;22.90;99.90
10512;DHT22;5304;48.604;2.096;2022-08-07T07:46:36;23.80;99.70
10512;DHT22;5304;48.604;2.096;2022-08-07T07:49:25;24.40;99.00
10512;DHT22;5304;48.604;2.096;2022-08-07T07:52:11;25.40;97.60
10512;DHT22;5304;48.604;2.096;2022-08-07T07:54:56;26.10;96.90
10512;DHT22;5304;48.604;2.096;2022-08-07T07:57:42;27.30;96.10
10512;DHT22;5304;48.604;2.096;2022-08-07T08:00:28;28.40;95.30
10512;DHT22;5304;48.604;2.096;2022-08-07T08:03:16;29.60;93.80
10512;DHT22;5304;48.604;2.096;2022-08-07T08:06:05;29.80;92.80
10512;DHT22;5304;48.604;2.096;2022-08-07T08:08:51;30.00;92.20
10512;DHT22;5304;48.604;2.096;2022-08-07T08:11:36;30.40;92.10
10512;DHT22;5304;48.604;2.096;2022-08-07T08:14:21;30.80;91.30
10512;DHT22;5304;48.604;2.096;2022-08-07T08:17:09;30.60;91.00
10512;DHT22;5304;48.604;2.096;2022-08-07T08:20:00;30.30;90.90
10512;DHT22;5304;48.604;2.096;2022-08-07T08:22:46;30.20;90.70
10512;DHT22;5304;48.604;2.096;2022-08-07T08:25:51;29.60;90.30
10512;DHT22;5304;48.604;2.096;2022-08-07T08:28:55;29.50;90.80
10512;DHT22;5304;48.604;2.096;2022-08-07T08:31:42;30.20;90.40
10512;DHT22;5304;48.604;2.096;2022-08-07T08:34:29;30.50;89.70
10512;DHT22;5304;48.604;2.096;2022-08-07T08:37:17;30.40;88.10
10512;DHT22;5304;48.604;2.096;2022-08-07T08:40:08;29.70;88.90
10512;DHT22;5304;48.604;2.096;2022-08-07T08:46:11;28.60;89.00
10512;DHT22;5304;48.604;2.096;2022-08-07T08:49:22;27.90;89.80
10512;DHT22;5304;48.604;2.096;2022-08-07T08:52:23;28.20;90.20
10512;DHT22;5304;48.604;2.096;2022-08-07T09:01:30;28.00;88.60
10512;DHT22;5304;48.604;2.096;2022-08-07T09:10:33;25.70;90.30
10512;DHT22;5304;48.604;2.096;2022-08-07T09:26:02;25.90;90.50
10512;DHT22;5304;48.604;2.096;2022-08-07T09:28:54;26.10;90.50
10512;DHT22;5304;48.604;2.096;2022-08-07T09:47:45;25.90;90.30
10512;DHT22;5304;48.604;2.096;2022-08-07T09:53:55;25.50;90.20
10512;DHT22;5304;48.604;2.096;2022-08-07T10:03:29;25.90;90.10
10512;DHT22;5304;48.604;2.096;2022-08-07T10:30:12;26.50;89.40
10512;DHT22;5304;48.604;2.096;2022-08-07T10:36:34;27.00;89.00
10512;DHT22;5304;48.604;2.096;2022-08-07T10:45:26;27.40;89.00
10512;DHT22;5304;48.604;2.096;2022-08-07T10:48:39;27.40;87.40
10512;DHT22;5304;48.604;2.096;2022-08-07T10:51:36;27.20;87.50
10512;DHT22;5304;48.604;2.096;2022-08-07T11:00:35;27.30;87.80
10512;DHT22;5304;48.604;2.096;2022-08-07T11:03:48;27.20;87.40
10512;DHT22;5304;48.604;2.096;2022-08-07T11:09:51;27.20;87.70
10512;DHT22;5304;48.604;2.096;2022-08-07T11:12:44;27.20;87.70
10512;DHT22;5304;48.604;2.096;2022-08-07T11:15:35;27.20;87.80
10512;DHT22;5304;48.604;2.096;2022-08-07T11:18:29;27.20;86.90
10512;DHT22;5304;48.604;2.096;2022-08-07T11:28:00;27.80;87.10
10512;DHT22;5304;48.604;2.096;2022-08-07T11:31:03;27.50;87.00
10512;DHT22;5304;48.604;2.096;2022-08-07T11:33:52;27.50;86.30
10512;DHT22;5304;48.604;2.096;2022-08-07T11:36:51;27.50;87.40
10512;DHT22;5304;48.604;2.096;2022-08-07T11:52:26;27.60;85.70
10512;DHT22;5304;48.604;2.096;2022-08-07T11:55:58;27.70;85.60
10512;DHT22;5304;48.604;2.096;2022-08-07T11:59:26;27.70;84.70
10512;DHT22;5304;48.604;2.096;2022-08-07T12:08:15;28.00;85.00
10512;DHT22;5304;48.604;2.096;2022-08-07T12:11:10;28.30;85.30
10512;DHT22;5304;48.604;2.096;2022-08-07T12:14:19;28.70;84.00
10512;DHT22;5304;48.604;2.096;2022-08-07T12:17:10;28.30;83.60
10512;DHT22;5304;48.604;2.096;2022-08-07T12:19:59;27.90;84.20
10512;DHT22;5304;48.604;2.096;2022-08-07T12:23:04;27.90;84.90
10512;DHT22;5304;48.604;2.096;2022-08-07T12:25:57;27.80;86.10
10512;DHT22;5304;48.604;2.096;2022-08-07T12:32:14;27.90;84.50
10512;DHT22;5304;48.604;2.096;2022-08-07T12:34:57;28.00;85.30
10512;DHT22;5304;48.604;2.096;2022-08-07T12:37:46;27.90;84.90
10512;DHT22;5304;48.604;2.096;2022-08-07T12:40:33;27.80;85.50
10512;DHT22;5304;48.604;2.096;2022-08-07T12:43:22;27.60;85.40
10512;DHT22;5304;48.604;2.096;2022-08-07T12:46:39;27.70;86.20
10512;DHT22;5304;48.604;2.096;2022-08-07T12:58:09;27.80;85.90
10512;DHT22;5304;48.604;2.096;2022-08-07T13:10:45;27.90;85.40
10512;DHT22;5304;48.604;2.096;2022-08-07T13:22:35;28.30;84.50
10512;DHT22;5304;48.604;2.096;2022-08-07T13:25:31;28.20;84.70
10512;DHT22;5304;48.604;2.096;2022-08-07T13:28:34;28.20;84.90
10512;DHT22;5304;48.604;2.096;2022-08-07T13:35:00;28.40;85.10
10512;DHT22;5304;48.604;2.096;2022-08-07T13:38:10;28.50;82.90
10512;DHT22;5304;48.604;2.096;2022-08-07T13:44:06;28.50;84.20
10512;DHT22;5304;48.604;2.096;2022-08-07T13:46:54;28.20;83.40
10512;DHT22;5304;48.604;2.096;2022-08-07T13:49:44;28.20;83.60
10512;DHT22;5304;48.604;2.096;2022-08-07T13:52:30;28.20;84.30
10512;DHT22;5304;48.604;2.096;2022-08-07T13:55:16;28.10;84.80
10512;DHT22;5304;48.604;2.096;2022-08-07T13:58:08;28.00;85.00
10512;DHT22;5304;48.604;2.096;2022-08-07T14:01:14;28.00;85.70
10512;DHT22;5304;48.604;2.096;2022-08-07T14:04:11;28.30;85.40
10512;DHT22;5304;48.604;2.096;2022-08-07T14:06:57;28.40;84.20
10512;DHT22;5304;48.604;2.096;2022-08-07T14:09:43;28.40;84.00
10512;DHT22;5304;48.604;2.096;2022-08-07T14:12:43;28.50;84.70
10512;DHT22;5304;48.604;2.096;2022-08-07T14:15:36;28.80;84.40
10512;DHT22;5304;48.604;2.096;2022-08-07T14:18:47;28.70;84.30
10512;DHT22;5304;48.604;2.096;2022-08-07T14:21:39;28.70;83.20
10512;DHT22;5304;48.604;2.096;2022-08-07T14:24:38;28.70;84.20
10512;DHT22;5304;48.604;2.096;2022-08-07T14:27:45;29.00;83.00
10512;DHT22;5304;48.604;2.096;2022-08-07T14:30:29;29.00;83.60
10512;DHT22;5304;48.604;2.096;2022-08-07T14:33:15;29.10;83.00
10512;DHT22;5304;48.604;2.096;2022-08-07T14:36:00;28.90;82.70
10512;DHT22;5304;48.604;2.096;2022-08-07T14:38:46;28.80;82.90
10512;DHT22;5304;48.604;2.096;2022-08-07T14:41:33;28.80;83.10
10512;DHT22;5304;48.604;2.096;2022-08-07T14:44:19;28.90;83.80
10512;DHT22;5304;48.604;2.096;2022-08-07T14:47:04;28.80;83.10
10512;DHT22;5304;48.604;2.096;2022-08-07T14:49:51;28.80;84.10
10512;DHT22;5304;48.604;2.096;2022-08-07T14:52:38;28.60;83.20
10512;DHT22;5304;48.604;2.096;2022-08-07T14:55:31;28.40;84.10
10512;DHT22;5304;48.604;2.096;2022-08-07T14:58:20;28.40;84.30
10512;DHT22;5304;48.604;2.096;2022-08-07T15:01:07;28.60;84.60
10512;DHT22;5304;48.604;2.096;2022-08-07T15:03:52;28.60;83.90
10512;DHT22;5304;48.604;2.096;2022-08-07T15:06:42;28.60;83.20
10512;DHT22;5304;48.604;2.096;2022-08-07T15:09:38;28.60;82.40
10512;DHT22;5304;48.604;2.096;2022-08-07T15:12:25;28.40;82.30
10512;DHT22;5304;48.604;2.096;2022-08-07T15:15:15;28.30;82.40
10512;DHT22;5304;48.604;2.096;2022-08-07T15:18:11;28.30;82.70
10512;DHT22;5304;48.604;2.096;2022-08-07T15:20:59;28.30;82.70
10512;DHT22;5304;48.604;2.096;2022-08-07T15:23:47;28.20;83.10
10512;DHT22;5304;48.604;2.096;2022-08-07T15:26:36;28.10;83.60
10512;DHT22;5304;48.604;2.096;2022-08-07T15:29:23;28.20;83.80
10512;DHT22;5304;48.604;2.096;2022-08-07T15:32:14;28.10;83.10
10512;DHT22;5304;48.604;2.096;2022-08-07T15:35:00;28.30;83.30
10512;DHT22;5304;48.604;2.096;2022-08-07T15:37:57;28.40;83.60
10512;DHT22;5304;48.604;2.096;2022-08-07T15:40:46;28.50;83.90
10512;DHT22;5304;48.604;2.096;2022-08-07T15:43:31;28.60;83.60
10512;DHT22;5304;48.604;2.096;2022-08-07T15:46:21;28.40;83.70
10512;DHT22;5304;48.604;2.096;2022-08-07T15:49:13;28.30;82.40
10512;DHT22;5304;48.604;2.096;2022-08-07T15:52:00;28.10;82.60
10512;DHT22;5304;48.604;2.096;2022-08-07T15:54:47;27.90;83.20
10512;DHT22;5304;48.604;2.096;2022-08-07T15:57:33;27.80;83.60
10512;DHT22;5304;48.604;2.096;2022-08-07T16:00:20;27.70;84.30
10512;DHT22;5304;48.604;2.096;2022-08-07T16:03:20;27.60;83.80
10512;DHT22;5304;48.604;2.096;2022-08-07T16:06:06;27.50;83.40
10512;DHT22;5304;48.604;2.096;2022-08-07T16:08:53;27.40;83.40
10512;DHT22;5304;48.604;2.096;2022-08-07T16:14:57;27.40;83.70
10512;DHT22;5304;48.604;2.096;2022-08-07T16:21:22;27.20;84.10
10512;DHT22;5304;48.604;2.096;2022-08-07T16:30:08;26.90;84.40
10512;DHT22;5304;48.604;2.096;2022-08-07T16:32:59;27.00;84.90
10512;DHT22;5304;48.604;2.096;2022-08-07T16:39:20;26.90;85.30
10512;DHT22;5304;48.604;2.096;2022-08-07T16:52:02;26.50;85.40
10512;DHT22;5304;48.604;2.096;2022-08-07T17:01:26;26.40;87.70
10512;DHT22;5304;48.604;2.096;2022-08-07T17:07:22;26.40;87.80
10512;DHT22;5304;48.604;2.096;2022-08-07T17:10:13;26.30;87.40
10512;DHT22;5304;48.604;2.096;2022-08-07T17:16:24;26.20;87.50
10512;DHT22;5304;48.604;2.096;2022-08-07T17:19:20;26.10;88.50
10512;DHT22;5304;48.604;2.096;2022-08-07T17:22:13;26.10;89.00
10512;DHT22;5304;48.604;2.096;2022-08-07T17:25:03;26.10;89.40
10512;DHT22;5304;48.604;2.096;2022-08-07T17:28:05;26.10;88.90
10512;DHT22;5304;48.604;2.096;2022-08-07T17:33:50;26.00;88.30
10512;DHT22;5304;48.604;2.096;2022-08-07T17:36:44;26.00;88.50
10512;DHT22;5304;48.604;2.096;2022-08-07T17:43:06;25.90;89.50
10512;DHT22;5304;48.604;2.096;2022-08-07T17:45:57;25.90;89.70
10512;DHT22;5304;48.604;2.096;2022-08-07T17:49:12;25.80;89.90
10512;DHT22;5304;48.604;2.096;2022-08-07T17:55:20;25.70;89.80
10512;DHT22;5304;48.604;2.096;2022-08-07T17:58:14;25.60;88.90
10512;DHT22;5304;48.604;2.096;2022-08-07T18:01:07;25.60;89.60
10512;DHT22;5304;48.604;2.096;2022-08-07T18:04:10;25.60;89.90
10512;DHT22;5304;48.604;2.096;2022-08-07T18:09:54;25.40;90.00
10512;DHT22;5304;48.604;2.096;2022-08-07T18:13:11;25.40;90.00
10512;DHT22;5304;48.604;2.096;2022-08-07T18:16:13;25.40;90.10
10512;DHT22;5304;48.604;2.096;2022-08-07T18:19:14;25.30;90.10
10512;DHT22;5304;48.604;2.096;2022-08-07T18:22:12;25.20;90.20
10512;DHT22;5304;48.604;2.096;2022-08-07T18:24:59;25.20;90.10
10512;DHT22;5304;48.604;2.096;2022-08-07T18:27:58;25.10;90.30
10512;DHT22;5304;48.604;2.096;2022-08-07T18:31:05;25.10;90.20
10512;DHT22;5304;48.604;2.096;2022-08-07T18:34:16;25.00;90.10
10512;DHT22;5304;48.604;2.096;2022-08-07T18:40:25;24.90;90.40
10512;DHT22;5304;48.604;2.096;2022-08-07T18:46:07;24.80;90.60
10512;DHT22;5304;48.604;2.096;2022-08-07T18:58:53;24.40;91.10
10512;DHT22;5304;48.604;2.096;2022-08-07T19:01:57;24.40;91.20
10512;DHT22;5304;48.604;2.096;2022-08-07T19:08:05;24.20;91.30
10512;DHT22;5304;48.604;2.096;2022-08-07T19:10:59;24.20;91.50
10512;DHT22;5304;48.604;2.096;2022-08-07T19:14:10;24.10;91.50
10512;DHT22;5304;48.604;2.096;2022-08-07T19:16:57;24.10;91.60
10512;DHT22;5304;48.604;2.096;2022-08-07T19:20:17;24.00;91.80
10512;DHT22;5304;48.604;2.096;2022-08-07T19:23:14;23.80;91.90
10512;DHT22;5304;48.604;2.096;2022-08-07T19:26:00;23.80;92.00
10512;DHT22;5304;48.604;2.096;2022-08-07T19:29:05;23.60;92.20
10512;DHT22;5304;48.604;2.096;2022-08-07T19:31:52;23.50;92.30
10512;DHT22;5304;48.604;2.096;2022-08-07T19:34:41;23.50;92.40
10512;DHT22;5304;48.604;2.096;2022-08-07T19:37:30;23.40;92.50
10512;DHT22;5304;48.604;2.096;2022-08-07T19:40:17;23.30;92.60
10512;DHT22;5304;48.604;2.096;2022-08-07T19:43:31;23.20;92.70
10512;DHT22;5304;48.604;2.096;2022-08-07T19:46:23;23.10;92.90
10512;DHT22;5304;48.604;2.096;2022-08-07T19:49:21;23.00;93.00
10512;DHT22;5304;48.604;2.096;2022-08-07T19:52:06;23.00;93.10
10512;DHT22;5304;48.604;2.096;2022-08-07T19:54:52;23.00;93.20
10512;DHT22;5304;48.604;2.096;2022-08-07T19:57:40;22.80;93.40
10512;DHT22;5304;48.604;2.096;2022-08-07T20:00:26;22.70;93.50
10512;DHT22;5304;48.604;2.096;2022-08-07T20:03:16;22.70;93.60
10512;DHT22;5304;48.604;2.096;2022-08-07T20:06:03;22.60;93.70
10512;DHT22;5304;48.604;2.096;2022-08-07T20:08:50;22.50;93.80
10512;DHT22;5304;48.604;2.096;2022-08-07T20:11:36;22.60;93.80
10512;DHT22;5304;48.604;2.096;2022-08-07T20:14:31;22.50;93.80
10512;DHT22;5304;48.604;2.096;2022-08-07T20:17:18;22.40;93.90
10512;DHT22;5304;48.604;2.096;2022-08-07T20:20:05;22.50;94.00
10512;DHT22;5304;48.604;2.096;2022-08-07T20:22:52;22.40;94.00
10512;DHT22;5304;48.604;2.096;2022-08-07T20:25:39;22.30;94.30
10512;DHT22;5304;48.604;2.096;2022-08-07T20:28:26;22.20;94.30
10512;DHT22;5304;48.604;2.096;2022-08-07T20:31:15;22.20;94.70
10512;DHT22;5304;48.604;2.096;2022-08-07T20:34:00;22.20;94.60
10512;DHT22;5304;48.604;2.096;2022-08-07T20:36:47;22.10;94.70
10512;DHT22;5304;48.604;2.096;2022-08-07T20:39:35;22.00;94.70
10512;DHT22;5304;48.604;2.096;2022-08-07T20:42:20;22.00;94.80
10512;DHT22;5304;48.604;2.096;2022-08-07T20:45:07;21.90;94.80
10512;DHT22;5304;48.604;2.096;2022-08-07T20:47:53;21.90;95.20
10512;DHT22;5304;48.604;2.096;2022-08-07T20:50:40;21.90;95.00
10512;DHT22;5304;48.604;2.096;2022-08-07T20:53:25;21.80;95.00
10512;DHT22;5304;48.604;2.096;2022-08-07T20:56:12;21.70;95.00
10512;DHT22;5304;48.604;2.096;2022-08-07T20:59:02;21.70;95.20
10512;DHT22;5304;48.604;2.096;2022-08-07T21:01:48;21.60;95.20
10512;DHT22;5304;48.604;2.096;2022-08-07T21:04:34;21.60;95.40
10512;DHT22;5304;48.604;2.096;2022-08-07T21:07:19;21.50;95.40
10512;DHT22;5304;48.604;2.096;2022-08-07T21:10:04;21.50;95.40
10512;DHT22;5304;48.604;2.096;2022-08-07T21:12:55;21.50;95.50
10512;DHT22;5304;48.604;2.096;2022-08-07T21:15:41;21.50;95.60
10512;DHT22;5304;48.604;2.096;2022-08-07T21:18:34;21.40;95.80
10512;DHT22;5304;48.604;2.096;2022-08-07T21:21:20;21.40;95.80
10512;DHT22;5304;48.604;2.096;2022-08-07T21:24:25;21.40;95.80
10512;DHT22;5304;48.604;2.096;2022-08-07T21:27:40;21.40;95.80
10512;DHT22;5304;48.604;2.096;2022-08-07T21:30:43;21.40;95.90
10512;DHT22;5304;48.604;2.096;2022-08-07T21:33:48;21.30;96.10
10512;DHT22;5304;48.604;2.096;2022-08-07T21:36:43;21.40;96.10
10512;DHT22;5304;48.604;2.096;2022-08-07T21:43:19;21.30;96.20
10512;DHT22;5304;48.604;2.096;2022-08-07T21:49:10;21.20;96.20
10512;DHT22;5304;48.604;2.096;2022-08-07T21:52:12;21.20;96.20
10512;DHT22;5304;48.604;2.096;2022-08-07T21:55:34;21.20;96.30
10512;DHT22;5304;48.604;2.096;2022-08-07T22:01:42;21.10;96.40
10512;DHT22;5304;48.604;2.096;2022-08-07T22:04:34;21.20;96.40
10512;DHT22;5304;48.604;2.096;2022-08-07T22:07:28;21.10;96.40
10512;DHT22;5304;48.604;2.096;2022-08-07T22:10:18;21.00;96.40
10512;DHT22;5304;48.604;2.096;2022-08-07T22:13:07;21.00;96.40
10512;DHT22;5304;48.604;2.096;2022-08-07T22:16:12;21.00;96.50
10512;DHT22;5304;48.604;2.096;2022-08-07T22:19:02;20.90;96.50
10512;DHT22;5304;48.604;2.096;2022-08-07T22:24:51;20.90;96.60